createdAt,value
2024-05-09T00:00:36.187Z,5.31
2024-05-09T00:03:08.389Z,5.18
2024-05-09T00:05:36.801Z,5.27
2024-05-09T00:08:04.375Z,5.30
2024-05-09T00:10:36.381Z,5.27
2024-05-09T00:13:05.966Z,5.44
2024-05-09T00:15:33.831Z,5.43
2024-05-09T00:18:01.112Z,5.56
2024-05-09T00:20:33.508Z,5.53
2024-05-09T00:23:07.283Z,5.27
2024-05-09T00:25:34.227Z,5.26
2024-05-09T00:28:00.940Z,5.85
2024-05-09T00:30:33.735Z,5.53
2024-05-09T00:33:03.191Z,5.34
2024-05-09T00:35:30.383Z,5.62
2024-05-09T00:37:57.147Z,5.64
2024-05-09T00:40:35.046Z,5.77
2024-05-09T00:43:06.087Z,5.80
2024-05-09T00:45:33.959Z,6.20
2024-05-09T00:48:03.196Z,5.98
2024-05-09T00:50:36.110Z,5.74
2024-05-09T00:53:06.038Z,5.70
2024-05-09T00:55:34.888Z,5.58
2024-05-09T00:58:03.089Z,5.63
2024-05-09T01:00:37.832Z,5.74
2024-05-09T01:03:07.328Z,5.79
2024-05-09T01:05:35.043Z,5.76
2024-05-09T01:08:03.042Z,5.91
2024-05-09T01:10:34.475Z,5.90
2024-05-09T01:13:06.703Z,5.70
2024-05-09T01:15:35.058Z,5.79
2024-05-09T01:18:07.620Z,5.62
2024-05-09T01:20:41.282Z,5.87
2024-05-09T01:23:11.625Z,5.71
2024-05-09T01:25:38.636Z,5.97
2024-05-09T01:28:06.316Z,5.87
2024-05-09T01:30:35.896Z,5.91
2024-05-09T01:33:06.785Z,5.74
2024-05-09T01:35:35.282Z,5.92
2024-05-09T01:38:02.211Z,6.04
2024-05-09T01:40:36.709Z,5.79
2024-05-09T01:43:06.118Z,5.76
2024-05-09T01:45:32.953Z,5.91
2024-05-09T01:47:59.884Z,6.01
2024-05-09T01:50:37.385Z,5.91
2024-05-09T01:53:08.796Z,5.90
2024-05-09T01:55:35.738Z,5.94
2024-05-09T01:58:02.400Z,5.71
2024-05-09T02:00:37.385Z,5.56
2024-05-09T02:03:10.195Z,5.80
2024-05-09T02:05:37.769Z,5.91
2024-05-09T02:08:05.597Z,5.92
2024-05-09T02:10:33.399Z,5.86
2024-05-09T02:13:00.490Z,5.76
2024-05-09T02:15:27.116Z,5.57
2024-05-09T02:17:54.081Z,5.73
2024-05-09T02:20:30.183Z,5.71
2024-05-09T02:23:05.086Z,5.89
2024-05-09T02:25:32.789Z,6.03
2024-05-09T02:27:59.668Z,5.85
2024-05-09T02:30:36.227Z,5.87
2024-05-09T02:33:07.907Z,6.30
2024-05-09T02:35:35.263Z,6.34
2024-05-09T02:38:02.062Z,6.43
2024-05-09T02:40:36.150Z,6.24
2024-05-09T02:43:05.849Z,6.02
2024-05-09T02:45:32.860Z,5.86
2024-05-09T02:47:59.765Z,5.98
2024-05-09T02:50:34.356Z,6.27
2024-05-09T02:53:05.701Z,6.13
2024-05-09T02:55:32.770Z,5.80
2024-05-09T02:57:59.559Z,5.82
2024-05-09T03:00:34.825Z,5.90
2024-05-09T03:03:08.459Z,6.17
2024-05-09T03:05:36.691Z,6.23
2024-05-09T03:08:04.156Z,6.12
2024-05-09T03:10:35.965Z,5.81
2024-05-09T03:13:09.178Z,5.87
2024-05-09T03:15:36.376Z,5.81
2024-05-09T03:18:04.551Z,5.80
2024-05-09T03:20:34.862Z,5.97
2024-05-09T03:23:03.880Z,6.06
2024-05-09T03:25:30.813Z,6.38
2024-05-09T03:27:57.375Z,6.49
2024-05-09T03:30:35.956Z,6.41
2024-05-09T03:33:15.347Z,6.46
2024-05-09T03:35:46.211Z,6.46
2024-05-09T03:38:13.185Z,6.39
2024-05-09T03:40:47.494Z,6.29
2024-05-09T03:43:14.662Z,6.32
2024-05-09T03:45:45.108Z,6.35
2024-05-09T03:48:12.129Z,6.57
2024-05-09T03:50:39.214Z,6.47
2024-05-09T03:53:09.457Z,6.41
2024-05-09T03:55:36.171Z,6.54
2024-05-09T03:58:02.790Z,6.53
2024-05-09T04:00:36.939Z,6.73
2024-05-09T04:03:11.005Z,6.75
2024-05-09T04:05:40.831Z,6.74
2024-05-09T04:08:08.931Z,6.81
2024-05-09T04:10:35.878Z,6.92
2024-05-09T04:13:03.674Z,7.00
2024-05-09T04:15:30.813Z,7.23
2024-05-09T04:17:57.793Z,7.36
2024-05-09T04:20:34.251Z,6.96
2024-05-09T04:23:06.845Z,7.17
2024-05-09T04:25:33.977Z,7.00
2024-05-09T04:28:00.649Z,7.16
2024-05-09T04:30:36.343Z,7.31
2024-05-09T04:33:07.061Z,7.47
2024-05-09T04:35:35.035Z,7.49
2024-05-09T04:38:01.686Z,7.60
2024-05-09T04:40:33.652Z,7.56
2024-05-09T04:43:03.978Z,7.51
2024-05-09T04:45:30.788Z,7.73
2024-05-09T04:47:57.840Z,7.81
2024-05-09T04:50:33.189Z,7.84
2024-05-09T04:53:04.008Z,7.92
2024-05-09T04:55:30.722Z,7.93
2024-05-09T04:57:57.632Z,7.94
2024-05-09T05:00:32.496Z,8.02
2024-05-09T05:03:07.051Z,8.06
2024-05-09T05:05:37.289Z,8.18
2024-05-09T05:08:04.091Z,8.36
2024-05-09T05:10:35.872Z,8.20
2024-05-09T05:13:18.007Z,8.37
2024-05-09T05:16:03.540Z,8.41
2024-05-09T05:18:30.314Z,8.54
2024-05-09T05:20:58.593Z,8.71
2024-05-09T05:23:25.465Z,8.82
2024-05-09T05:25:53.364Z,9.02
2024-05-09T05:28:20.793Z,9.02
2024-05-09T05:30:47.565Z,9.04
2024-05-09T05:33:16.032Z,9.22
2024-05-09T05:35:42.963Z,9.27
2024-05-09T05:38:10.796Z,9.37
2024-05-09T05:40:38.710Z,9.52
2024-05-09T05:43:10.459Z,9.60
2024-05-09T05:45:37.900Z,9.73
2024-05-09T05:48:06.526Z,9.68
2024-05-09T05:50:36.938Z,9.78
2024-05-09T05:53:06.731Z,10.09
2024-05-09T05:55:33.714Z,10.53
2024-05-09T05:58:01.961Z,10.73
2024-05-09T06:00:34.988Z,10.91
2024-05-09T06:03:05.837Z,11.04
2024-05-09T06:05:32.944Z,11.64
2024-05-09T06:07:59.746Z,10.91
2024-05-09T06:10:34.898Z,10.98
2024-05-09T06:13:05.605Z,10.59
2024-05-09T06:15:32.278Z,10.98
2024-05-09T06:17:59.471Z,10.86
2024-05-09T06:20:34.727Z,11.45
2024-05-09T06:23:04.405Z,11.19
2024-05-09T06:25:31.391Z,11.06
2024-05-09T06:27:57.966Z,11.18
2024-05-09T06:30:30.965Z,12.32
2024-05-09T06:33:06.060Z,12.67
2024-05-09T06:35:33.643Z,11.97
2024-05-09T06:38:00.852Z,12.05
2024-05-09T06:40:36.233Z,12.64
2024-05-09T06:43:05.671Z,12.57
2024-05-09T06:45:32.311Z,12.98
2024-05-09T06:47:59.316Z,13.68
2024-05-09T06:50:28.644Z,12.99
2024-05-09T06:53:02.398Z,12.47
2024-05-09T06:55:29.202Z,13.76
2024-05-09T06:57:55.934Z,12.99
2024-05-09T07:00:30.281Z,13.72
2024-05-09T07:03:12.290Z,12.97
2024-05-09T07:05:40.474Z,13.26
2024-05-09T07:08:07.451Z,13.98
2024-05-09T07:10:36.106Z,14.09
2024-05-09T07:13:07.849Z,14.23
2024-05-09T07:15:34.396Z,13.92
2024-05-09T07:18:01.240Z,13.85
2024-05-09T07:20:34.170Z,14.13
2024-05-09T07:23:03.138Z,13.66
2024-05-09T07:25:30.309Z,13.82
2024-05-09T07:27:57.099Z,13.74
2024-05-09T07:30:32.550Z,14.56
2024-05-09T07:33:01.462Z,14.84
2024-05-09T07:35:28.812Z,14.53
2024-05-09T07:37:55.596Z,14.43
2024-05-09T07:40:31.698Z,14.13
2024-05-09T07:43:07.288Z,14.20
2024-05-09T07:52:23.584Z,13.52
2024-05-09T07:53:38.730Z,13.71
2024-05-09T07:56:09.094Z,14.37
2024-05-09T07:58:36.603Z,13.64
2024-05-09T08:01:03.374Z,14.08
2024-05-09T08:03:30.542Z,14.32
2024-05-09T08:05:57.251Z,13.69
2024-05-09T08:08:23.834Z,13.31
2024-05-09T08:10:51.330Z,13.58
2024-05-09T08:13:18.057Z,13.32
2024-05-09T08:15:44.959Z,13.07
2024-05-09T08:18:12.939Z,13.15
2024-05-09T08:20:41.428Z,13.18
2024-05-09T08:23:08.291Z,13.80
2024-05-09T08:25:34.880Z,13.76
2024-05-09T08:28:01.551Z,13.92
2024-05-09T08:30:33.800Z,14.77
2024-05-09T08:33:04.633Z,14.23
2024-05-09T08:35:31.855Z,14.00
2024-05-09T08:37:58.641Z,15.00
2024-05-09T08:40:32.931Z,14.64
2024-05-09T08:43:02.873Z,15.93
2024-05-09T08:45:30.208Z,15.64
2024-05-09T08:48:01.516Z,16.13
2024-05-09T08:50:35.937Z,15.43
2024-05-09T08:53:06.059Z,15.74
2024-05-09T08:55:32.916Z,15.55
2024-05-09T08:58:02.720Z,16.07
2024-05-09T09:00:36.804Z,16.11
2024-05-09T09:03:07.238Z,16.35
2024-05-09T09:05:38.057Z,16.20
2024-05-09T09:08:07.314Z,17.51
2024-05-09T09:10:34.083Z,17.73
2024-05-09T09:13:05.107Z,18.11
2024-05-09T09:15:34.972Z,16.98
2024-05-09T09:18:01.910Z,16.95
2024-05-09T09:20:35.880Z,17.07
2024-05-09T09:23:04.551Z,16.06
2024-05-09T09:25:31.851Z,16.54
2024-05-09T09:27:58.964Z,17.83
2024-05-09T09:30:36.247Z,18.42
2024-05-09T09:33:06.067Z,16.40
2024-05-09T09:35:33.152Z,16.47
2024-05-09T09:38:03.328Z,16.35
2024-05-09T09:40:42.399Z,16.89
2024-05-09T09:43:18.600Z,16.65
2024-05-09T09:45:46.906Z,16.72
2024-05-09T09:48:15.317Z,18.46
2024-05-09T09:50:43.187Z,17.47
2024-05-09T09:53:11.405Z,17.95
2024-05-09T09:55:39.827Z,17.94
2024-05-09T09:58:09.573Z,19.03
2024-05-09T10:00:38.601Z,19.11
2024-05-09T10:03:05.500Z,17.69
2024-05-09T10:05:33.724Z,17.99
2024-05-09T10:08:05.148Z,18.06
2024-05-09T10:10:34.169Z,18.02
2024-05-09T10:13:04.555Z,18.42
2024-05-09T10:15:46.204Z,17.96
2024-05-09T10:18:13.450Z,18.17
2024-05-09T10:20:49.348Z,18.53
2024-05-09T10:23:33.597Z,19.12
2024-05-09T10:26:05.510Z,18.81
2024-05-09T10:28:34.108Z,18.18
2024-05-09T10:31:07.533Z,18.44
2024-05-09T10:33:46.207Z,18.76
2024-05-09T10:36:14.761Z,18.54
2024-05-09T10:38:43.019Z,18.44
2024-05-09T10:41:10.771Z,19.09
2024-05-09T10:43:39.818Z,20.09
2024-05-09T10:46:07.690Z,19.73
2024-05-09T10:48:36.008Z,18.87
2024-05-09T10:51:03.104Z,18.00
2024-05-09T10:53:31.145Z,18.89
2024-05-09T10:56:01.678Z,19.62
2024-05-09T10:58:28.509Z,20.73
2024-05-09T11:00:58.341Z,20.02
2024-05-09T11:03:25.274Z,20.13
2024-05-09T11:05:52.981Z,19.89
2024-05-09T11:08:23.975Z,20.48
2024-05-09T11:10:52.714Z,20.58
2024-05-09T11:13:33.067Z,20.65
2024-05-09T11:16:00.774Z,19.76
2024-05-09T11:18:32.187Z,19.39
2024-05-09T11:21:02.023Z,20.46
2024-05-09T11:23:32.235Z,21.80
2024-05-09T11:25:59.169Z,20.55
2024-05-09T11:28:28.798Z,19.72
2024-05-09T11:31:06.695Z,21.07
2024-05-09T11:33:37.640Z,21.45
2024-05-09T11:36:05.339Z,20.26
2024-05-09T11:38:32.560Z,20.32
2024-05-09T11:40:59.208Z,21.06
2024-05-09T11:43:25.801Z,21.49
2024-05-09T11:45:52.500Z,21.35
2024-05-09T11:48:19.331Z,21.23
2024-05-09T11:50:46.109Z,21.83
2024-05-09T11:53:12.696Z,21.19
2024-05-09T11:55:39.290Z,21.30
2024-05-09T11:58:06.141Z,21.80
2024-05-09T12:00:36.987Z,21.71
2024-05-09T12:03:05.771Z,22.63
2024-05-09T12:05:33.347Z,21.99
2024-05-09T12:08:00.867Z,20.09
2024-05-09T12:10:33.208Z,20.25
2024-05-09T12:13:03.981Z,21.64
2024-05-09T12:15:32.411Z,20.42
2024-05-09T12:18:02.530Z,20.47
2024-05-09T12:20:36.617Z,21.38
2024-05-09T12:23:06.566Z,21.24
2024-05-09T12:25:36.132Z,21.06
2024-05-09T12:28:03.123Z,21.53
2024-05-09T12:30:36.571Z,21.03
2024-05-09T12:33:08.594Z,20.38
2024-05-09T12:35:35.635Z,20.55
2024-05-09T12:38:03.064Z,21.55
2024-05-09T12:42:59.279Z,21.55
2024-05-09T12:45:25.862Z,21.86
2024-05-09T12:47:52.574Z,21.49
2024-05-09T12:50:28.786Z,21.15
2024-05-09T12:52:58.421Z,20.75
2024-05-09T12:55:25.058Z,21.02
2024-05-09T12:57:51.673Z,21.73
2024-05-09T13:00:24.022Z,20.23
2024-05-09T13:02:57.851Z,20.26
2024-05-09T13:05:24.750Z,19.80
2024-05-09T13:07:51.510Z,20.89
2024-05-09T13:10:28.690Z,20.87
2024-05-09T13:12:59.271Z,21.11
2024-05-09T13:15:26.028Z,20.90
2024-05-09T13:17:52.879Z,20.41
2024-05-09T13:20:28.890Z,20.32
2024-05-09T13:23:01.466Z,21.16
2024-05-09T13:25:28.067Z,21.51
2024-05-09T13:27:55.011Z,20.94
2024-05-09T13:30:29.345Z,20.56
2024-05-09T13:33:05.162Z,19.96
2024-05-09T13:35:32.336Z,19.75
2024-05-09T13:37:59.068Z,19.79
2024-05-09T13:40:32.705Z,19.76
2024-05-09T13:43:02.173Z,20.46
2024-05-09T13:45:29.039Z,20.77
2024-05-09T13:47:55.860Z,20.94
2024-05-09T13:50:31.105Z,20.60
2024-05-09T13:53:01.941Z,20.62
2024-05-09T13:55:28.711Z,20.32
2024-05-09T13:57:55.630Z,20.35
2024-05-09T14:00:32.105Z,20.65
2024-05-09T14:03:09.394Z,20.45
2024-05-09T14:05:36.308Z,20.06
2024-05-09T14:08:04.522Z,19.72
2024-05-09T14:10:32.376Z,19.35
2024-05-09T14:13:00.742Z,18.96
2024-05-09T14:15:27.770Z,18.95
2024-05-09T14:17:55.409Z,19.10
2024-05-09T14:20:30.387Z,19.66
2024-05-09T14:22:59.309Z,19.28
2024-05-09T14:25:28.391Z,19.25
2024-05-09T14:27:56.068Z,19.63
2024-05-09T14:30:30.649Z,19.63
2024-05-09T14:33:03.471Z,19.82
2024-05-09T14:35:30.258Z,19.09
2024-05-09T14:37:56.927Z,18.96
2024-05-09T14:40:36.634Z,19.14
2024-05-09T14:43:08.493Z,18.43
2024-05-09T14:45:35.520Z,18.88
2024-05-09T14:48:03.727Z,19.14
2024-05-09T14:50:36.100Z,18.28
2024-05-09T14:53:07.096Z,18.49
2024-05-09T14:55:36.899Z,18.66
2024-05-09T14:58:06.830Z,18.56
2024-05-09T15:00:36.602Z,18.38
2024-05-09T15:03:05.531Z,18.04
2024-05-09T15:05:32.248Z,18.00
2024-05-09T15:07:59.456Z,17.92
2024-05-09T15:10:33.982Z,18.20
2024-05-09T15:13:04.304Z,18.14
2024-05-09T15:15:31.177Z,18.16
2024-05-09T15:17:58.060Z,17.91
2024-05-09T15:20:32.979Z,17.63
2024-05-09T15:23:02.813Z,17.47
2024-05-09T15:25:29.728Z,17.32
2024-05-09T15:27:56.710Z,17.53
2024-05-09T15:30:30.724Z,17.55
2024-05-09T15:33:03.257Z,16.79
2024-05-09T15:35:30.144Z,16.75
2024-05-09T15:37:56.818Z,16.65
2024-05-09T15:40:35.539Z,16.93
2024-05-09T15:43:07.127Z,16.79
2024-05-09T15:45:34.568Z,16.96
2024-05-09T15:48:02.564Z,16.92
2024-05-09T15:50:36.938Z,17.06
2024-05-09T15:53:07.997Z,17.10
2024-05-09T15:55:35.557Z,17.03
2024-05-09T15:58:03.307Z,16.76
2024-05-09T16:00:37.572Z,16.75
2024-05-09T16:03:08.566Z,16.47
2024-05-09T16:05:35.538Z,16.39
2024-05-09T16:08:02.617Z,16.51
2024-05-09T16:10:32.952Z,15.70
2024-05-09T16:13:01.555Z,16.20
2024-05-09T16:15:28.803Z,16.56
2024-05-09T16:17:56.220Z,16.16
2024-05-09T16:20:34.238Z,15.98
2024-05-09T16:23:06.467Z,15.78
2024-05-09T16:25:33.398Z,16.07
2024-05-09T16:28:00.293Z,16.28
2024-05-09T16:30:31.929Z,16.32
2024-05-09T16:33:02.450Z,15.96
2024-05-09T16:35:29.437Z,15.73
2024-05-09T16:37:56.181Z,15.99
2024-05-09T16:40:30.319Z,16.22
2024-05-09T16:43:04.648Z,15.98
2024-05-09T16:45:32.013Z,15.98
2024-05-09T16:47:59.956Z,15.96
2024-05-09T16:50:32.333Z,16.07
2024-05-09T16:53:01.124Z,15.88
2024-05-09T16:55:28.035Z,15.50
2024-05-09T16:57:55.626Z,15.46
2024-05-09T17:00:31.631Z,15.90
2024-05-09T17:03:06.807Z,16.12
2024-05-09T17:05:34.311Z,16.36
2024-05-09T17:08:01.473Z,15.86
2024-05-09T17:10:32.889Z,15.75
2024-05-09T17:13:02.920Z,15.39
2024-05-09T17:15:30.088Z,15.52
2024-05-09T17:17:57.051Z,15.38
2024-05-09T17:20:31.353Z,15.62
2024-05-09T17:23:02.284Z,15.53
2024-05-09T17:25:29.380Z,15.58
2024-05-09T17:27:56.647Z,15.61
2024-05-09T17:30:31.570Z,16.06
2024-05-09T17:33:03.338Z,15.98
2024-05-09T17:35:30.109Z,16.58
2024-05-09T17:37:58.134Z,15.98
2024-05-09T17:40:31.133Z,15.67
2024-05-09T17:43:01.781Z,15.64
2024-05-09T17:45:28.558Z,15.46
2024-05-09T17:47:55.567Z,15.37
2024-05-09T17:50:30.225Z,15.37
2024-05-09T17:53:01.329Z,15.08
2024-05-09T17:55:28.735Z,15.35
2024-05-09T17:57:55.614Z,15.22
2024-05-09T18:00:32.867Z,15.05
2024-05-09T18:03:05.486Z,14.98
2024-05-09T18:05:32.621Z,14.63
2024-05-09T18:07:59.458Z,14.62
2024-05-09T18:10:33.156Z,14.49
2024-05-09T18:13:04.120Z,14.27
2024-05-09T18:15:30.906Z,14.05
2024-05-09T18:17:58.108Z,14.00
2024-05-09T18:20:33.166Z,14.16
2024-05-09T18:23:08.133Z,13.84
2024-05-09T18:25:34.953Z,13.45
2024-05-09T18:28:03.039Z,13.50
2024-05-09T18:30:34.778Z,13.22
2024-05-09T18:33:04.945Z,13.31
2024-05-09T18:35:32.661Z,13.18
2024-05-09T18:37:59.382Z,13.45
2024-05-09T18:40:33.645Z,13.03
2024-05-09T18:43:04.891Z,12.76
2024-05-09T18:45:32.668Z,12.80
2024-05-09T18:47:59.508Z,12.72
2024-05-09T18:50:34.345Z,12.87
2024-05-09T18:53:08.771Z,12.80
2024-05-09T18:55:35.753Z,12.68
2024-05-09T18:58:03.671Z,12.55
2024-05-09T19:00:35.918Z,12.47
2024-05-09T19:03:09.690Z,12.61
2024-05-09T19:05:38.863Z,12.79
2024-05-09T19:08:06.370Z,12.63
2024-05-09T19:10:35.040Z,12.79
2024-05-09T19:13:08.035Z,12.83
2024-05-09T19:15:38.601Z,12.80
2024-05-09T19:18:06.180Z,12.64
2024-05-09T19:20:35.243Z,12.36
2024-05-09T19:23:03.629Z,12.19
2024-05-09T19:25:30.424Z,12.24
2024-05-09T19:27:57.120Z,12.31
2024-05-09T19:30:32.883Z,12.13
2024-05-09T19:33:05.740Z,11.94
2024-05-09T19:35:32.643Z,11.98
2024-05-09T19:37:59.477Z,11.86
2024-05-09T19:40:31.318Z,11.55
2024-05-09T19:43:00.492Z,11.52
2024-05-09T19:45:27.164Z,11.76
2024-05-09T19:47:53.922Z,12.00
2024-05-09T19:50:27.123Z,11.85
2024-05-09T19:53:03.076Z,11.59
2024-05-09T19:55:29.824Z,11.79
2024-05-09T19:57:56.948Z,11.78
2024-05-09T20:00:32.328Z,11.92
2024-05-09T20:03:02.551Z,11.79
2024-05-09T20:05:31.217Z,11.87
2024-05-09T20:07:58.203Z,11.84
2024-05-09T20:10:31.105Z,11.96
2024-05-09T20:12:59.667Z,11.70
2024-05-09T20:15:26.463Z,11.59
2024-05-09T20:17:53.844Z,11.59
2024-05-09T20:20:28.693Z,11.48
2024-05-09T20:23:03.258Z,11.28
2024-05-09T20:25:29.974Z,11.24
2024-05-09T20:27:56.674Z,11.45
2024-05-09T20:30:30.565Z,11.38
2024-05-09T20:32:59.980Z,11.35
2024-05-09T20:35:26.950Z,11.33
2024-05-09T20:37:53.645Z,11.40
2024-05-09T20:40:28.360Z,11.39
2024-05-09T20:42:59.143Z,11.37
2024-05-09T20:45:25.863Z,11.27
2024-05-09T20:47:52.760Z,11.08
2024-05-09T20:50:28.196Z,11.01
2024-05-09T20:53:02.682Z,10.96
2024-05-09T20:55:30.128Z,10.94
2024-05-09T20:58:00.363Z,10.91
2024-05-09T21:00:35.173Z,10.83
2024-05-09T21:03:07.350Z,10.89
2024-05-09T21:05:35.195Z,10.90
2024-05-09T21:08:02.321Z,10.67
2024-05-09T21:10:32.823Z,10.71
2024-05-09T21:13:00.939Z,10.62
2024-05-09T21:15:27.740Z,10.77
2024-05-09T21:17:54.472Z,10.80
2024-05-09T21:20:28.122Z,10.78
2024-05-09T21:22:58.069Z,10.74
2024-05-09T21:25:24.761Z,10.50
2024-05-09T21:27:51.566Z,10.44
2024-05-09T21:30:27.319Z,10.59
2024-05-09T21:32:59.929Z,10.33
2024-05-09T21:35:26.642Z,10.35
2024-05-09T21:37:53.320Z,10.21
2024-05-09T21:40:27.349Z,10.00
2024-05-09T21:43:01.208Z,10.16
2024-05-09T21:45:27.996Z,10.17
2024-05-09T21:47:55.136Z,10.20
2024-05-09T21:50:28.199Z,10.15
2024-05-09T21:53:02.020Z,9.81
2024-05-09T21:55:28.638Z,9.58
2024-05-09T21:57:56.633Z,9.87
2024-05-09T22:00:29.234Z,10.13
2024-05-09T22:03:02.608Z,10.12
2024-05-09T22:05:29.492Z,10.09
2024-05-09T22:07:56.984Z,10.20
2024-05-09T22:10:30.531Z,10.32
2024-05-09T22:13:00.880Z,10.35
2024-05-09T22:15:27.604Z,10.36
2024-05-09T22:17:56.062Z,10.35
2024-05-09T22:20:29.422Z,10.42
2024-05-09T22:23:04.247Z,10.41
2024-05-09T22:25:32.094Z,10.51
2024-05-09T22:27:59.483Z,10.44
2024-05-09T22:30:33.730Z,10.41
2024-05-09T22:33:04.719Z,10.41
2024-05-09T22:35:31.444Z,10.60
2024-05-09T22:37:57.998Z,10.60
2024-05-09T22:40:37.427Z,10.74
2024-05-09T22:43:12.309Z,10.83
2024-05-09T22:45:39.235Z,10.86
2024-05-09T22:48:06.741Z,10.81
2024-05-09T22:50:33.928Z,10.75
2024-05-09T22:53:00.981Z,10.85
2024-05-09T22:55:27.714Z,10.90
2024-05-09T22:57:54.364Z,10.82
2024-05-09T23:00:29.285Z,10.83
2024-05-09T23:03:02.372Z,10.89
2024-05-09T23:05:29.700Z,11.02
2024-05-09T23:07:56.481Z,10.97
2024-05-09T23:10:31.089Z,10.95
2024-05-09T23:13:02.612Z,11.03
2024-05-09T23:15:29.504Z,11.04
2024-05-09T23:17:57.356Z,11.02
2024-05-09T23:22:53.909Z,10.95
2024-05-09T23:25:20.609Z,11.08
2024-05-09T23:27:47.364Z,11.05
2024-05-09T23:30:25.395Z,11.02
2024-05-09T23:32:55.968Z,11.06
2024-05-09T23:35:22.761Z,11.02
2024-05-09T23:37:49.360Z,11.09
2024-05-09T23:40:19.007Z,11.02
2024-05-09T23:42:49.342Z,11.11
2024-05-09T23:45:16.015Z,11.11
2024-05-09T23:47:42.684Z,11.18
2024-05-09T23:50:16.554Z,11.18
2024-05-09T23:52:47.380Z,11.21
2024-05-09T23:55:14.171Z,11.20
2024-05-09T23:57:41.146Z,11.32
